sensor_id;sensor_type;location;lat;lon;timestamp;temperature;humidity
11246;DHT22;59870;50.106;8.580;2023-11-21T06:00:26;13.40;99.50
11246;DHT22;59870;50.106;8.580;2023-11-21T06:02:55;13.60;99.40
11246;DHT22;59870;50.106;8.580;2023-11-21T06:05:25;13.60;99.30
11246;DHT22;59870;50.106;8.580;2023-11-21T06:07:55;13.40;99.20
11246;DHT22;59870;50.106;8.580;2023-11-21T06:10:46;13.60;99.30
11246;DHT22;59870;50.106;8.580;2023-11-21T06:14:21;13.40;99.10
11246;DHT22;59870;50.106;8.580;2023-11-21T06:17:00;13.40;99.40
11246;DHT22;59870;50.106;8.580;2023-11-21T06:32:30;13.20;99.70
11246;DHT22;59870;50.106;8.580;2023-11-21T06:35:35;13.20;99.60
11246;DHT22;59870;50.106;8.580;2023-11-21T06:38:09;13.10;99.80
11246;DHT22;59870;50.106;8.580;2023-11-21T06:41:04;13.10;99.60
11246;DHT22;59870;50.106;8.580;2023-11-21T06:43:58;13.10;99.60
11246;DHT22;59870;50.106;8.580;2023-11-21T06:47:47;13.00;99.80
11246;DHT22;59870;50.106;8.580;2023-11-21T06:50:28;13.10;99.70
11246;DHT22;59870;50.106;8.580;2023-11-21T06:52:58;13.10;99.70
11246;DHT22;59870;50.106;8.580;2023-11-21T06:58:40;13.20;99.80
11246;DHT22;59870;50.106;8.580;2023-11-21T07:01:10;13.20;99.50
11246;DHT22;59870;50.106;8.580;2023-11-21T07:03:39;13.20;99.30
11246;DHT22;59870;50.106;8.580;2023-11-21T07:06:09;13.20;99.20
11246;DHT22;59870;50.106;8.580;2023-11-21T07:08:38;13.20;99.20
11246;DHT22;59870;50.106;8.580;2023-11-21T07:11:12;13.20;99.20
11246;DHT22;59870;50.106;8.580;2023-11-21T07:13:43;13.20;99.10
11246;DHT22;59870;50.106;8.580;2023-11-21T07:16:16;13.30;99.30
11246;DHT22;59870;50.106;8.580;2023-11-21T07:18:46;13.50;99.50
11246;DHT22;59870;50.106;8.580;2023-11-21T07:34:29;13.30;99.30
11246;DHT22;59870;50.106;8.580;2023-11-21T07:36:58;13.50;99.20
11246;DHT22;59870;50.106;8.580;2023-11-21T07:39:29;13.50;99.30
11246;DHT22;59870;50.106;8.580;2023-11-21T07:42:00;13.40;99.30
11246;DHT22;59870;50.106;8.580;2023-11-21T07:44:28;13.30;99.30
11246;DHT22;59870;50.106;8.580;2023-11-21T07:46:56;13.40;99.40
11246;DHT22;59870;50.106;8.580;2023-11-21T07:49:25;13.50;99.60
11246;DHT22;59870;50.106;8.580;2023-11-21T07:51:54;13.40;99.40
11246;DHT22;59870;50.106;8.580;2023-11-21T07:54:22;13.60;99.20
11246;DHT22;59870;50.106;8.580;2023-11-21T07:56:51;13.60;98.80
11246;DHT22;59870;50.106;8.580;2023-11-21T07:59:20;13.40;98.50
11246;DHT22;59870;50.106;8.580;2023-11-21T08:01:48;13.50;98.40
11246;DHT22;59870;50.106;8.580;2023-11-21T08:04:38;13.50;98.40
11246;DHT22;59870;50.106;8.580;2023-11-21T08:07:30;13.30;98.00
11246;DHT22;59870;50.106;8.580;2023-11-21T08:10:00;13.30;98.00
11246;DHT22;59870;50.106;8.580;2023-11-21T08:12:36;13.60;97.90
11246;DHT22;59870;50.106;8.580;2023-11-21T08:15:40;13.80;97.90
11246;DHT22;59870;50.106;8.580;2023-11-21T08:18:16;13.30;97.80
11246;DHT22;59870;50.106;8.580;2023-11-21T08:21:20;13.60;97.80
11246;DHT22;59870;50.106;8.580;2023-11-21T08:23:57;13.70;98.00
11246;DHT22;59870;50.106;8.580;2023-11-21T08:26:33;13.50;97.80
11246;DHT22;59870;50.106;8.580;2023-11-21T08:29:00;13.50;97.80
11246;DHT22;59870;50.106;8.580;2023-11-21T09:27:16;13.90;97.20
11246;DHT22;59870;50.106;8.580;2023-11-21T10:13:45;14.20;95.40
11246;DHT22;59870;50.106;8.580;2023-11-21T10:23:34;14.50;95.60
11246;DHT22;59870;50.106;8.580;2023-11-21T10:26:29;14.70;94.80
11246;DHT22;59870;50.106;8.580;2023-11-21T10:29:14;14.80;94.70
11246;DHT22;59870;50.106;8.580;2023-11-21T10:31:45;14.80;94.90
11246;DHT22;59870;50.106;8.580;2023-11-21T10:34:20;14.90;94.20
11246;DHT22;59870;50.106;8.580;2023-11-21T10:36:49;14.90;94.00
11246;DHT22;59870;50.106;8.580;2023-11-21T10:39:21;15.10;93.60
11246;DHT22;59870;50.106;8.580;2023-11-21T10:42:38;15.00;93.60
11246;DHT22;59870;50.106;8.580;2023-11-21T10:46:09;15.00;93.80
11246;DHT22;59870;50.106;8.580;2023-11-21T10:48:55;15.00;93.70
11246;DHT22;59870;50.106;8.580;2023-11-21T10:51:25;15.10;93.80
11246;DHT22;59870;50.106;8.580;2023-11-21T10:54:29;15.20;93.50
11246;DHT22;59870;50.106;8.580;2023-11-21T10:58:04;15.00;93.90
11246;DHT22;59870;50.106;8.580;2023-11-21T11:01:05;15.40;93.80
11246;DHT22;59870;50.106;8.580;2023-11-21T11:07:08;15.60;93.80
11246;DHT22;59870;50.106;8.580;2023-11-21T11:14:13;15.70;93.40
11246;DHT22;59870;50.106;8.580;2023-11-21T14:10:08;15.70;91.40
11246;DHT22;59870;50.106;8.580;2023-11-21T14:12:42;15.70;91.70
11246;DHT22;59870;50.106;8.580;2023-11-21T14:15:10;15.70;91.80
11246;DHT22;59870;50.106;8.580;2023-11-21T14:17:39;15.90;92.20
11246;DHT22;59870;50.106;8.580;2023-11-21T14:20:10;15.90;92.30
11246;DHT22;59870;50.106;8.580;2023-11-21T14:22:44;15.90;92.50
11246;DHT22;59870;50.106;8.580;2023-11-21T14:25:13;15.70;92.00
11246;DHT22;59870;50.106;8.580;2023-11-21T15:18:30;15.20;93.50
11246;DHT22;59870;50.106;8.580;2023-11-21T15:20:58;15.30;93.60
11246;DHT22;59870;50.106;8.580;2023-11-21T15:32:49;15.10;94.00
11246;DHT22;59870;50.106;8.580;2023-11-21T15:51:30;15.20;93.50
11246;DHT22;59870;50.106;8.580;2023-11-21T16:31:45;15.10;93.70
11246;DHT22;59870;50.106;8.580;2023-11-21T16:34:18;15.10;93.80
11246;DHT22;59870;50.106;8.580;2023-11-21T16:36:47;15.10;93.90
11246;DHT22;59870;50.106;8.580;2023-11-21T16:39:19;15.10;93.70
11246;DHT22;59870;50.106;8.580;2023-11-21T16:41:50;15.30;94.00
11246;DHT22;59870;50.106;8.580;2023-11-21T16:44:20;15.10;93.50
11246;DHT22;59870;50.106;8.580;2023-11-21T16:46:55;15.30;93.70
11246;DHT22;59870;50.106;8.580;2023-11-21T16:49:28;15.30;93.60
11246;DHT22;59870;50.106;8.580;2023-11-21T16:51:57;15.30;93.80
11246;DHT22;59870;50.106;8.580;2023-11-21T16:57:41;15.10;93.80
11246;DHT22;59870;50.106;8.580;2023-11-21T17:00:09;15.20;93.80
11246;DHT22;59870;50.106;8.580;2023-11-21T17:02:40;15.10;94.20
11246;DHT22;59870;50.106;8.580;2023-11-21T17:05:09;15.10;94.40
11246;DHT22;59870;50.106;8.580;2023-11-21T17:07:37;15.20;94.50
11246;DHT22;59870;50.106;8.580;2023-11-21T17:13:16;15.10;94.60
11246;DHT22;59870;50.106;8.580;2023-11-21T17:15:44;15.30;94.60
11246;DHT22;59870;50.106;8.580;2023-11-21T17:18:13;15.40;94.60
11246;DHT22;59870;50.106;8.580;2023-11-21T17:20:41;15.20;93.90
11246;DHT22;59870;50.106;8.580;2023-11-21T17:23:08;15.20;93.90
11246;DHT22;59870;50.106;8.580;2023-11-21T17:25:39;15.40;94.00
11246;DHT22;59870;50.106;8.580;2023-11-21T17:28:06;15.20;93.90
11246;DHT22;59870;50.106;8.580;2023-11-21T17:30:34;15.10;93.70
11246;DHT22;59870;50.106;8.580;2023-11-21T17:33:02;15.10;93.70
11246;DHT22;59870;50.106;8.580;2023-11-21T17:35:30;15.00;93.60
11246;DHT22;59870;50.106;8.580;2023-11-21T17:37:57;15.00;93.80
11246;DHT22;59870;50.106;8.580;2023-11-21T17:40:25;14.90;93.80
11246;DHT22;59870;50.106;8.580;2023-11-21T17:42:54;14.90;93.80
11246;DHT22;59870;50.106;8.580;2023-11-21T17:45:22;14.90;93.80
11246;DHT22;59870;50.106;8.580;2023-11-21T17:47:49;14.80;93.80
11246;DHT22;59870;50.106;8.580;2023-11-21T17:50:17;14.70;94.10
11246;DHT22;59870;50.106;8.580;2023-11-21T17:52:45;14.70;94.00
11246;DHT22;59870;50.106;8.580;2023-11-21T17:55:13;14.60;94.10
11246;DHT22;59870;50.106;8.580;2023-11-21T17:57:41;14.50;94.20
11246;DHT22;59870;50.106;8.580;2023-11-21T18:00:09;14.50;94.30
11246;DHT22;59870;50.106;8.580;2023-11-21T18:02:39;14.50;94.40
11246;DHT22;59870;50.106;8.580;2023-11-21T18:05:07;14.50;94.50
11246;DHT22;59870;50.106;8.580;2023-11-21T18:07:38;14.50;94.40
11246;DHT22;59870;50.106;8.580;2023-11-21T18:10:07;14.50;94.40
11246;DHT22;59870;50.106;8.580;2023-11-21T18:12:35;14.50;94.50
11246;DHT22;59870;50.106;8.580;2023-11-21T18:15:02;14.50;94.40
11246;DHT22;59870;50.106;8.580;2023-11-21T18:17:30;14.50;94.50
11246;DHT22;59870;50.106;8.580;2023-11-21T18:19:58;14.50;94.50
11246;DHT22;59870;50.106;8.580;2023-11-21T18:22:25;14.50;94.50
11246;DHT22;59870;50.106;8.580;2023-11-21T18:24:54;14.50;94.60
11246;DHT22;59870;50.106;8.580;2023-11-21T18:27:24;14.50;94.50
11246;DHT22;59870;50.106;8.580;2023-11-21T18:29:55;14.50;94.30
11246;DHT22;59870;50.106;8.580;2023-11-21T18:32:25;14.50;94.30
11246;DHT22;59870;50.106;8.580;2023-11-21T18:34:54;14.50;94.30
11246;DHT22;59870;50.106;8.580;2023-11-21T18:37:24;14.40;94.20
11246;DHT22;59870;50.106;8.580;2023-11-21T18:39:51;14.50;94.30
11246;DHT22;59870;50.106;8.580;2023-11-21T18:42:19;14.40;94.30
11246;DHT22;59870;50.106;8.580;2023-11-21T18:44:49;14.40;94.40
11246;DHT22;59870;50.106;8.580;2023-11-21T18:47:26;14.20;94.20
11246;DHT22;59870;50.106;8.580;2023-11-21T18:49:55;14.00;94.30
11246;DHT22;59870;50.106;8.580;2023-11-21T18:52:23;13.70;94.30
11246;DHT22;59870;50.106;8.580;2023-11-21T18:54:54;13.50;94.70
11246;DHT22;59870;50.106;8.580;2023-11-21T18:57:22;13.30;94.90
11246;DHT22;59870;50.106;8.580;2023-11-21T18:59:50;13.10;94.90
11246;DHT22;59870;50.106;8.580;2023-11-21T19:02:17;13.00;94.90
11246;DHT22;59870;50.106;8.580;2023-11-21T19:04:45;13.00;94.60
11246;DHT22;59870;50.106;8.580;2023-11-21T19:07:12;12.90;94.40
11246;DHT22;59870;50.106;8.580;2023-11-21T19:09:41;12.80;93.60
11246;DHT22;59870;50.106;8.580;2023-11-21T19:12:08;12.70;93.50
11246;DHT22;59870;50.106;8.580;2023-11-21T19:14:37;12.60;93.10
11246;DHT22;59870;50.106;8.580;2023-11-21T19:17:04;12.50;92.50
11246;DHT22;59870;50.106;8.580;2023-11-21T19:19:32;12.40;92.40
11246;DHT22;59870;50.106;8.580;2023-11-21T19:21:59;12.30;92.40
11246;DHT22;59870;50.106;8.580;2023-11-21T19:24:27;12.20;92.50
11246;DHT22;59870;50.106;8.580;2023-11-21T19:26:55;12.10;92.50
11246;DHT22;59870;50.106;8.580;2023-11-21T19:29:23;12.10;92.60
11246;DHT22;59870;50.106;8.580;2023-11-21T19:31:50;12.00;92.70
11246;DHT22;59870;50.106;8.580;2023-11-21T19:34:18;11.90;92.90
11246;DHT22;59870;50.106;8.580;2023-11-21T19:36:46;11.90;93.00
11246;DHT22;59870;50.106;8.580;2023-11-21T19:39:13;11.90;92.70
11246;DHT22;59870;50.106;8.580;2023-11-21T19:41:41;11.70;92.80
11246;DHT22;59870;50.106;8.580;2023-11-21T19:44:37;11.70;92.90
11246;DHT22;59870;50.106;8.580;2023-11-21T19:47:05;11.60;92.90
11246;DHT22;59870;50.106;8.580;2023-11-21T19:49:32;11.60;93.00
11246;DHT22;59870;50.106;8.580;2023-11-21T19:52:01;11.90;93.10
11246;DHT22;59870;50.106;8.580;2023-11-21T19:54:28;11.50;92.80
11246;DHT22;59870;50.106;8.580;2023-11-21T19:56:56;11.40;92.80
11246;DHT22;59870;50.106;8.580;2023-11-21T19:59:23;11.30;93.00
11246;DHT22;59870;50.106;8.580;2023-11-21T20:01:51;11.30;93.00
11246;DHT22;59870;50.106;8.580;2023-11-21T20:04:19;11.30;93.20
11246;DHT22;59870;50.106;8.580;2023-11-21T20:06:47;11.20;93.40
11246;DHT22;59870;50.106;8.580;2023-11-21T20:09:23;11.10;93.30
11246;DHT22;59870;50.106;8.580;2023-11-21T20:11:51;11.00;93.50
11246;DHT22;59870;50.106;8.580;2023-11-21T20:14:19;11.00;93.50
11246;DHT22;59870;50.106;8.580;2023-11-21T20:16:46;11.00;93.40
11246;DHT22;59870;50.106;8.580;2023-11-21T20:19:15;11.10;93.50
11246;DHT22;59870;50.106;8.580;2023-11-21T20:21:42;11.10;93.00
11246;DHT22;59870;50.106;8.580;2023-11-21T20:24:10;11.20;93.20
11246;DHT22;59870;50.106;8.580;2023-11-21T20:26:40;10.90;93.00
11246;DHT22;59870;50.106;8.580;2023-11-21T20:29:10;10.80;93.10
11246;DHT22;59870;50.106;8.580;2023-11-21T20:31:38;10.70;93.00
11246;DHT22;59870;50.106;8.580;2023-11-21T20:34:05;10.60;93.10
11246;DHT22;59870;50.106;8.580;2023-11-21T20:36:34;10.60;93.20
11246;DHT22;59870;50.106;8.580;2023-11-21T20:39:01;10.90;93.40
11246;DHT22;59870;50.106;8.580;2023-11-21T20:41:29;10.60;93.10
11246;DHT22;59870;50.106;8.580;2023-11-21T20:43:56;10.70;93.20
11246;DHT22;59870;50.106;8.580;2023-11-21T20:46:24;10.60;93.30
11246;DHT22;59870;50.106;8.580;2023-11-21T20:48:51;10.60;93.30
11246;DHT22;59870;50.106;8.580;2023-11-21T20:51:21;10.60;93.50
11246;DHT22;59870;50.106;8.580;2023-11-21T20:53:49;10.60;93.50
11246;DHT22;59870;50.106;8.580;2023-11-21T20:56:17;10.60;93.50
11246;DHT22;59870;50.106;8.580;2023-11-21T20:58:46;10.60;93.50
11246;DHT22;59870;50.106;8.580;2023-11-21T21:01:14;10.60;93.60
11246;DHT22;59870;50.106;8.580;2023-11-21T21:03:43;10.50;93.50
11246;DHT22;59870;50.106;8.580;2023-11-21T21:06:13;10.60;93.40
11246;DHT22;59870;50.106;8.580;2023-11-21T21:08:40;10.50;93.40
11246;DHT22;59870;50.106;8.580;2023-11-21T21:11:08;10.50;93.40
11246;DHT22;59870;50.106;8.580;2023-11-21T21:13:36;10.50;93.50
11246;DHT22;59870;50.106;8.580;2023-11-21T21:16:05;10.50;93.20
11246;DHT22;59870;50.106;8.580;2023-11-21T21:18:32;10.50;93.40
11246;DHT22;59870;50.106;8.580;2023-11-21T21:21:02;10.40;93.50
11246;DHT22;59870;50.106;8.580;2023-11-21T21:23:30;10.40;93.60
11246;DHT22;59870;50.106;8.580;2023-11-21T21:25:57;10.40;93.40
11246;DHT22;59870;50.106;8.580;2023-11-21T21:28:25;10.30;93.40
11246;DHT22;59870;50.106;8.580;2023-11-21T21:30:52;10.40;93.40
11246;DHT22;59870;50.106;8.580;2023-11-21T21:33:20;10.50;93.60
11246;DHT22;59870;50.106;8.580;2023-11-21T21:35:47;10.20;93.50
11246;DHT22;59870;50.106;8.580;2023-11-21T21:38:15;10.20;93.30
11246;DHT22;59870;50.106;8.580;2023-11-21T21:40:43;10.40;93.60
11246;DHT22;59870;50.106;8.580;2023-11-21T21:43:14;10.40;93.60
11246;DHT22;59870;50.106;8.580;2023-11-21T21:45:42;10.40;93.50
11246;DHT22;59870;50.106;8.580;2023-11-21T21:48:10;10.20;94.10
11246;DHT22;59870;50.106;8.580;2023-11-21T21:50:38;10.30;93.60
11246;DHT22;59870;50.106;8.580;2023-11-21T21:53:11;10.20;93.50
11246;DHT22;59870;50.106;8.580;2023-11-21T21:55:41;10.10;93.40
11246;DHT22;59870;50.106;8.580;2023-11-21T21:58:09;10.10;93.50
11246;DHT22;59870;50.106;8.580;2023-11-21T22:00:37;10.30;93.90
11246;DHT22;59870;50.106;8.580;2023-11-21T22:03:06;10.10;94.10
11246;DHT22;59870;50.106;8.580;2023-11-21T22:05:35;10.00;93.90
11246;DHT22;59870;50.106;8.580;2023-11-21T22:08:03;10.00;93.70
11246;DHT22;59870;50.106;8.580;2023-11-21T22:10:32;9.90;93.90
11246;DHT22;59870;50.106;8.580;2023-11-21T22:13:00;9.90;93.90
11246;DHT22;59870;50.106;8.580;2023-11-21T22:15:28;9.90;93.80
11246;DHT22;59870;50.106;8.580;2023-11-21T22:17:55;9.80;94.00
11246;DHT22;59870;50.106;8.580;2023-11-21T22:20:24;9.90;94.20
11246;DHT22;59870;50.106;8.580;2023-11-21T22:22:52;9.90;94.70
11246;DHT22;59870;50.106;8.580;2023-11-21T22:25:21;10.10;94.40
11246;DHT22;59870;50.106;8.580;2023-11-21T22:27:48;9.90;94.40
11246;DHT22;59870;50.106;8.580;2023-11-21T22:30:16;10.00;94.10
11246;DHT22;59870;50.106;8.580;2023-11-21T22:32:44;10.00;94.00
11246;DHT22;59870;50.106;8.580;2023-11-21T22:35:13;9.90;94.50
11246;DHT22;59870;50.106;8.580;2023-11-21T22:37:40;9.90;94.40
11246;DHT22;59870;50.106;8.580;2023-11-21T22:40:08;10.10;94.10
11246;DHT22;59870;50.106;8.580;2023-11-21T22:42:36;9.90;94.70
11246;DHT22;59870;50.106;8.580;2023-11-21T22:45:07;9.80;94.70
11246;DHT22;59870;50.106;8.580;2023-11-21T22:47:35;9.90;94.70
11246;DHT22;59870;50.106;8.580;2023-11-21T22:50:03;9.90;94.50
11246;DHT22;59870;50.106;8.580;2023-11-21T22:52:32;9.90;94.40
11246;DHT22;59870;50.106;8.580;2023-11-21T22:55:00;9.70;94.40
11246;DHT22;59870;50.106;8.580;2023-11-21T22:57:27;9.70;94.50
11246;DHT22;59870;50.106;8.580;2023-11-21T22:59:55;9.70;94.40
11246;DHT22;59870;50.106;8.580;2023-11-21T23:02:22;9.70;94.30
11246;DHT22;59870;50.106;8.580;2023-11-21T23:04:50;9.70;94.40
11246;DHT22;59870;50.106;8.580;2023-11-21T23:07:18;9.90;94.20
11246;DHT22;59870;50.106;8.580;2023-11-21T23:09:46;9.60;93.90
11246;DHT22;59870;50.106;8.580;2023-11-21T23:12:13;9.70;93.80
11246;DHT22;59870;50.106;8.580;2023-11-21T23:14:41;9.70;93.80
11246;DHT22;59870;50.106;8.580;2023-11-21T23:17:08;9.70;93.60
11246;DHT22;59870;50.106;8.580;2023-11-21T23:19:36;9.70;93.80
11246;DHT22;59870;50.106;8.580;2023-11-21T23:22:14;9.70;93.60
11246;DHT22;59870;50.106;8.580;2023-11-21T23:24:42;9.60;93.80
11246;DHT22;59870;50.106;8.580;2023-11-21T23:27:09;9.60;94.00
11246;DHT22;59870;50.106;8.580;2023-11-21T23:29:37;9.80;93.90
11246;DHT22;59870;50.106;8.580;2023-11-21T23:32:11;9.70;93.60
11246;DHT22;59870;50.106;8.580;2023-11-21T23:34:46;9.60;93.70
11246;DHT22;59870;50.106;8.580;2023-11-21T23:37:14;9.70;93.70
11246;DHT22;59870;50.106;8.580;2023-11-21T23:39:47;9.90;93.50
